createdAt,value
2018-12-24T00:00:28.759Z,7.2
2018-12-24T00:01:30.557Z,7.2
2018-12-24T00:02:32.169Z,7.1
2018-12-24T00:03:34.160Z,7.1
2018-12-24T00:04:35.887Z,7.1
2018-12-24T00:05:37.690Z,7.0
2018-12-24T00:06:39.355Z,7.0
2018-12-24T00:07:41.059Z,7.0
2018-12-24T00:08:42.720Z,7.0
2018-12-24T00:09:44.464Z,7.0
2018-12-24T00:10:46.204Z,7.0
2018-12-24T00:11:47.896Z,7.0
2018-12-24T00:12:49.765Z,7.0
2018-12-24T00:13:51.500Z,7.0
2018-12-24T00:14:53.278Z,7.0
2018-12-24T00:15:55.101Z,7.0
2018-12-24T00:16:56.762Z,7.0
2018-12-24T00:17:58.342Z,7.0
2018-12-24T00:19:00.166Z,7.0
2018-12-24T00:20:01.886Z,7.0
2018-12-24T00:21:03.809Z,7.0
2018-12-24T00:22:05.565Z,7.0
2018-12-24T00:23:07.337Z,7.1
2018-12-24T00:24:09.253Z,7.1
2018-12-24T00:25:10.931Z,7.0
2018-12-24T00:26:12.788Z,7.0
2018-12-24T00:27:14.530Z,7.1
2018-12-24T00:28:16.234Z,7.1
2018-12-24T00:29:17.864Z,7.0
2018-12-24T00:30:19.671Z,7.0
2018-12-24T00:31:21.517Z,6.9
2018-12-24T00:32:23.198Z,6.9
2018-12-24T00:33:24.990Z,6.9
2018-12-24T00:34:26.629Z,6.9
2018-12-24T00:35:28.518Z,7.0
2018-12-24T00:36:30.166Z,7.0
2018-12-24T00:37:31.795Z,6.9
2018-12-24T00:38:33.704Z,6.9
2018-12-24T00:39:35.360Z,6.9
2018-12-24T00:40:37.066Z,7.0
2018-12-24T00:41:38.834Z,7.0
2018-12-24T00:42:40.306Z,6.9
2018-12-24T00:43:41.870Z,7.0
2018-12-24T00:44:43.759Z,6.9
2018-12-24T00:45:45.439Z,6.9
2018-12-24T00:46:47.127Z,7.0
2018-12-24T00:47:48.911Z,6.9
2018-12-24T00:48:50.605Z,6.9
2018-12-24T00:49:52.300Z,7.0
2018-12-24T00:50:54.223Z,6.9
2018-12-24T00:51:55.924Z,7.0
2018-12-24T00:52:57.606Z,7.0
2018-12-24T00:53:59.362Z,7.0
2018-12-24T00:55:01.109Z,7.1
2018-12-24T00:56:02.817Z,7.0
2018-12-24T00:57:04.813Z,7.0
2018-12-24T00:58:06.470Z,7.0
2018-12-24T00:59:08.212Z,7.0
2018-12-24T01:00:09.898Z,7.0
2018-12-24T01:01:11.738Z,7.0
2018-12-24T01:02:13.496Z,7.0
2018-12-24T01:03:15.114Z,7.0
2018-12-24T01:04:16.868Z,7.0
2018-12-24T01:05:18.626Z,7.0
2018-12-24T01:06:20.306Z,7.0
2018-12-24T01:07:22.289Z,7.1
2018-12-24T01:08:23.959Z,7.0
2018-12-24T01:09:25.681Z,7.0
2018-12-24T01:10:27.427Z,7.0
2018-12-24T01:11:29.193Z,7.0
2018-12-24T01:12:30.924Z,7.0
2018-12-24T01:13:32.692Z,7.0
2018-12-24T01:14:34.342Z,7.0
2018-12-24T01:15:36.237Z,7.0
2018-12-24T01:16:37.828Z,7.1
2018-12-24T01:17:39.677Z,7.0
2018-12-24T01:18:41.474Z,7.1
2018-12-24T01:19:43.185Z,7.1
2018-12-24T01:20:44.884Z,7.1
2018-12-24T01:21:46.632Z,7.0
2018-12-24T01:22:48.371Z,7.0
2018-12-24T01:23:50.080Z,7.1
2018-12-24T01:24:51.734Z,7.1
2018-12-24T01:25:53.735Z,7.1
2018-12-24T01:26:55.426Z,7.1
2018-12-24T01:27:57.152Z,7.1
2018-12-24T01:28:59.007Z,7.1
2018-12-24T01:30:00.727Z,7.1
2018-12-24T01:31:02.476Z,7.1
2018-12-24T01:32:04.326Z,7.1
2018-12-24T01:33:06.029Z,7.0
2018-12-24T01:34:07.746Z,7.0
2018-12-24T01:35:09.507Z,7.1
2018-12-24T01:36:11.228Z,7.1
2018-12-24T01:37:12.875Z,7.1
2018-12-24T01:38:14.553Z,7.1
2018-12-24T01:39:16.241Z,7.2
2018-12-24T01:40:17.986Z,7.0
2018-12-24T01:41:19.839Z,7.1
2018-12-24T01:42:21.518Z,7.2
2018-12-24T01:43:23.146Z,7.2
2018-12-24T01:44:24.898Z,7.2
2018-12-24T01:45:26.556Z,7.2
2018-12-24T01:46:28.323Z,7.2
2018-12-24T01:47:30.232Z,7.1
2018-12-24T01:48:31.901Z,7.1
2018-12-24T01:49:33.619Z,7.1
2018-12-24T01:50:35.486Z,7.1
2018-12-24T01:51:37.232Z,7.1
2018-12-24T01:52:38.842Z,7.1
2018-12-24T01:53:40.758Z,7.1
2018-12-24T01:54:42.532Z,7.2
2018-12-24T01:55:44.201Z,7.1
2018-12-24T01:56:46.256Z,7.2
2018-12-24T01:57:47.994Z,7.2
2018-12-24T01:58:49.663Z,7.1
2018-12-24T01:59:51.402Z,7.2
2018-12-24T02:00:53.080Z,7.1
2018-12-24T02:01:54.883Z,7.1
2018-12-24T02:02:56.784Z,7.2
2018-12-24T02:03:58.558Z,7.1
2018-12-24T02:05:00.436Z,7.2
2018-12-24T02:06:02.226Z,7.2
2018-12-24T02:07:04.184Z,7.2
2018-12-24T02:08:05.871Z,7.3
2018-12-24T02:09:07.497Z,7.3
2018-12-24T02:10:09.244Z,7.2
2018-12-24T02:11:10.921Z,7.2
2018-12-24T02:12:12.433Z,7.2
2018-12-24T02:13:14.145Z,7.2
2018-12-24T02:14:15.588Z,7.3
2018-12-24T02:15:17.201Z,7.2
2018-12-24T02:16:18.945Z,7.2
2018-12-24T02:17:20.475Z,7.2
2018-12-24T02:18:22.176Z,7.2
2018-12-24T02:19:23.905Z,7.3
2018-12-24T02:20:25.537Z,7.2
2018-12-24T02:21:26.980Z,7.2
2018-12-24T02:22:28.862Z,7.2
2018-12-24T02:23:30.554Z,7.3
2018-12-24T02:24:32.311Z,7.3
2018-12-24T02:25:34.138Z,7.2
2018-12-24T02:26:35.812Z,7.3
2018-12-24T02:27:37.733Z,7.3
2018-12-24T02:28:39.438Z,7.2
2018-12-24T02:29:41.158Z,7.3
2018-12-24T02:30:43.044Z,7.3
2018-12-24T02:31:44.705Z,7.3
2018-12-24T02:32:46.367Z,7.3
2018-12-24T02:33:48.187Z,7.3
2018-12-24T02:34:49.936Z,7.3
2018-12-24T02:35:51.683Z,7.3
2018-12-24T02:36:53.494Z,7.3
2018-12-24T02:37:55.131Z,7.3
2018-12-24T02:38:56.781Z,7.3
2018-12-24T02:39:58.740Z,7.3
2018-12-24T02:41:00.399Z,7.3
2018-12-24T02:42:02.223Z,7.3
2018-12-24T02:43:03.876Z,7.3
2018-12-24T02:44:05.762Z,7.3
2018-12-24T02:45:07.266Z,7.2
2018-12-24T02:46:09.205Z,7.2
2018-12-24T02:47:10.822Z,7.4
2018-12-24T02:48:12.744Z,7.3
2018-12-24T02:49:14.466Z,7.2
2018-12-24T02:50:16.350Z,7.2
2018-12-24T02:51:18.050Z,7.2
2018-12-24T02:52:19.826Z,7.3
2018-12-24T02:53:21.554Z,7.3
2018-12-24T02:54:23.324Z,7.3
2018-12-24T02:55:25.047Z,7.2
2018-12-24T02:56:26.822Z,7.3
2018-12-24T02:57:28.386Z,7.4
2018-12-24T02:58:30.063Z,7.4
2018-12-24T02:59:31.926Z,7.3
2018-12-24T03:00:33.594Z,7.4
2018-12-24T03:01:35.282Z,7.4
2018-12-24T03:02:37.193Z,7.4
2018-12-24T03:03:38.953Z,7.4
2018-12-24T03:04:40.673Z,7.4
2018-12-24T03:05:42.473Z,7.4
2018-12-24T03:06:44.152Z,7.4
2018-12-24T03:07:45.822Z,7.4
2018-12-24T03:08:47.617Z,7.4
2018-12-24T03:09:49.312Z,7.4
2018-12-24T03:10:50.763Z,7.4
2018-12-24T03:11:52.277Z,7.4
2018-12-24T03:13:02.272Z,7.4
2018-12-24T03:13:55.453Z,7.3
2018-12-24T03:14:56.981Z,7.4
2018-12-24T03:15:58.655Z,7.4
2018-12-24T03:17:00.279Z,7.4
2018-12-24T03:18:01.754Z,7.4
2018-12-24T03:19:03.456Z,7.4
2018-12-24T03:20:05.304Z,7.4
2018-12-24T03:21:07.007Z,7.4
2018-12-24T03:22:08.762Z,7.4
2018-12-24T03:23:10.473Z,7.4
2018-12-24T03:24:12.169Z,7.4
2018-12-24T03:25:13.761Z,7.4
2018-12-24T03:26:15.668Z,7.4
2018-12-24T03:27:17.312Z,7.4
2018-12-24T03:28:19.091Z,7.4
2018-12-24T03:29:20.714Z,7.4
2018-12-24T03:30:22.370Z,7.4
2018-12-24T03:31:24.229Z,7.4
2018-12-24T03:32:25.854Z,7.4
2018-12-24T03:33:27.584Z,7.4
2018-12-24T03:34:29.343Z,7.4
2018-12-24T03:35:31.024Z,7.4
2018-12-24T03:36:32.715Z,7.4
2018-12-24T03:37:34.480Z,7.4
2018-12-24T03:38:36.152Z,7.3
2018-12-24T03:39:37.809Z,7.4
2018-12-24T03:40:39.646Z,7.4
2018-12-24T03:41:41.280Z,7.4
2018-12-24T03:42:42.698Z,7.4
2018-12-24T03:43:44.411Z,7.4
2018-12-24T03:44:46.111Z,7.4
2018-12-24T03:45:47.840Z,7.4
2018-12-24T03:46:49.611Z,7.3
2018-12-24T03:47:51.316Z,7.3
2018-12-24T03:48:52.939Z,7.4
2018-12-24T03:49:54.627Z,7.4
2018-12-24T03:50:56.538Z,7.4
2018-12-24T03:51:58.201Z,7.3
2018-12-24T03:52:59.858Z,7.4
2018-12-24T03:54:01.632Z,7.4
2018-12-24T03:55:03.287Z,7.4
2018-12-24T03:56:04.928Z,7.4
2018-12-24T03:57:06.807Z,7.4
2018-12-24T03:58:08.447Z,7.3
2018-12-24T03:59:10.135Z,7.4
2018-12-24T04:00:11.909Z,7.4
2018-12-24T04:01:13.550Z,7.4
2018-12-24T04:02:15.461Z,7.4
2018-12-24T04:03:17.087Z,7.4
2018-12-24T04:04:18.876Z,7.4
2018-12-24T04:05:20.555Z,7.4
2018-12-24T04:06:22.257Z,7.4
2018-12-24T04:07:24.056Z,7.4
2018-12-24T04:08:27.337Z,7.4
2018-12-24T04:09:28.885Z,7.4
2018-12-24T04:10:31.724Z,7.4
2018-12-24T04:11:33.318Z,7.4
2018-12-24T04:12:35.092Z,7.4
2018-12-24T04:13:36.954Z,7.4
2018-12-24T04:14:38.609Z,7.4
2018-12-24T04:15:40.279Z,7.4
2018-12-24T04:16:42.074Z,7.4
2018-12-24T04:17:43.843Z,7.4
2018-12-24T04:18:45.633Z,7.4
2018-12-24T04:19:47.319Z,7.4
2018-12-24T04:20:49.178Z,7.4
2018-12-24T04:21:50.972Z,7.5
2018-12-24T04:22:52.636Z,7.4
2018-12-24T04:23:54.369Z,7.4
2018-12-24T04:24:56.220Z,7.4
2018-12-24T04:25:57.965Z,7.4
2018-12-24T04:26:59.645Z,7.4
2018-12-24T04:28:01.476Z,7.3
2018-12-24T04:29:03.300Z,7.4
2018-12-24T04:30:05.011Z,7.4
2018-12-24T04:31:06.877Z,7.4
2018-12-24T04:32:08.548Z,7.4
2018-12-24T04:33:10.185Z,7.4
2018-12-24T04:34:12.054Z,7.4
2018-12-24T04:35:13.719Z,7.5
2018-12-24T04:36:15.691Z,7.5
2018-12-24T04:37:17.280Z,7.5
2018-12-24T04:38:19.017Z,7.4
2018-12-24T04:39:20.871Z,7.4
2018-12-24T04:40:22.674Z,7.4
2018-12-24T04:41:24.298Z,7.6
2018-12-24T04:42:26.147Z,7.4
2018-12-24T04:43:32.119Z,7.4
2018-12-24T04:44:29.605Z,7.5
2018-12-24T04:45:31.253Z,7.5
2018-12-24T04:46:32.984Z,7.5
2018-12-24T04:47:34.761Z,7.5
2018-12-24T04:48:36.430Z,7.5
2018-12-24T04:49:38.200Z,7.5
2018-12-24T04:50:40.093Z,7.5
2018-12-24T04:51:41.777Z,7.5
2018-12-24T04:52:43.472Z,7.5
2018-12-24T04:53:44.965Z,7.6
2018-12-24T04:54:46.534Z,7.6
2018-12-24T04:55:47.959Z,7.6
2018-12-24T04:56:49.588Z,7.6
2018-12-24T04:57:51.083Z,7.5
2018-12-24T04:58:52.536Z,7.6
2018-12-24T04:59:54.098Z,7.6
2018-12-24T05:00:55.578Z,7.6
2018-12-24T05:01:57.094Z,7.5
2018-12-24T05:02:58.847Z,7.4
2018-12-24T05:04:00.305Z,7.5
2018-12-24T05:05:01.784Z,7.6
2018-12-24T05:06:03.306Z,7.5
2018-12-24T05:07:04.828Z,7.6
2018-12-24T05:08:06.409Z,7.6
2018-12-24T05:09:07.945Z,7.6
2018-12-24T05:10:09.493Z,7.5
2018-12-24T05:11:10.955Z,7.6
2018-12-24T05:12:12.596Z,7.5
2018-12-24T05:13:14.105Z,7.6
2018-12-24T05:14:15.710Z,7.5
2018-12-24T05:15:17.193Z,7.4
2018-12-24T05:16:18.700Z,7.5
2018-12-24T05:17:20.398Z,7.5
2018-12-24T05:18:21.872Z,7.5
2018-12-24T05:19:23.342Z,7.5
2018-12-24T05:20:24.922Z,7.5
2018-12-24T05:21:26.467Z,7.4
2018-12-24T05:22:28.088Z,7.5
2018-12-24T05:23:29.576Z,7.5
2018-12-24T05:24:31.102Z,7.4
2018-12-24T05:25:32.597Z,7.4
2018-12-24T05:26:34.103Z,7.4
2018-12-24T05:27:35.672Z,7.4
2018-12-24T05:28:37.172Z,7.4
2018-12-24T05:29:38.646Z,7.4
2018-12-24T05:30:40.399Z,7.4
2018-12-24T05:31:41.862Z,7.5
2018-12-24T05:32:43.451Z,7.5
2018-12-24T05:33:44.953Z,7.5
2018-12-24T05:34:46.609Z,7.5
2018-12-24T05:35:47.964Z,7.6
2018-12-24T05:36:49.600Z,7.5
2018-12-24T05:37:51.120Z,7.5
2018-12-24T05:38:52.740Z,7.4
2018-12-24T05:39:54.238Z,7.5
2018-12-24T05:40:55.806Z,7.4
2018-12-24T05:41:57.337Z,7.5
2018-12-24T05:42:58.869Z,7.5
2018-12-24T05:44:00.293Z,7.5
2018-12-24T05:45:01.960Z,7.4
2018-12-24T05:46:03.396Z,7.5
2018-12-24T05:47:04.815Z,7.5
2018-12-24T05:48:06.537Z,7.5
2018-12-24T05:49:08.024Z,7.5
2018-12-24T05:50:09.523Z,7.4
2018-12-24T05:51:11.199Z,7.4
2018-12-24T05:52:12.694Z,7.4
2018-12-24T05:53:14.199Z,7.4
2018-12-24T05:54:15.719Z,7.4
2018-12-24T05:55:17.207Z,7.4
2018-12-24T05:56:18.702Z,7.4
2018-12-24T05:57:20.275Z,7.3
2018-12-24T05:58:21.769Z,7.4
2018-12-24T05:59:23.285Z,7.4
2018-12-24T06:00:24.848Z,7.4
2018-12-24T06:01:26.354Z,7.4
2018-12-24T06:02:27.853Z,7.4
2018-12-24T06:03:29.527Z,7.4
2018-12-24T06:04:31.011Z,7.4
2018-12-24T06:05:32.621Z,7.4
2018-12-24T06:06:34.091Z,7.4
2018-12-24T06:07:35.591Z,7.4
2018-12-24T06:08:37.090Z,7.4
2018-12-24T06:09:38.984Z,7.4
2018-12-24T06:10:40.499Z,7.4
2018-12-24T06:11:42.070Z,7.3
2018-12-24T06:12:43.566Z,7.4
2018-12-24T06:13:45.040Z,7.4
2018-12-24T06:14:46.604Z,7.3
2018-12-24T06:15:48.067Z,7.4
2018-12-24T06:16:49.579Z,7.4
2018-12-24T06:17:51.171Z,7.4
2018-12-24T06:18:52.660Z,7.3
2018-12-24T06:19:54.233Z,7.4
2018-12-24T06:20:55.702Z,7.3
2018-12-24T06:21:57.345Z,7.4
2018-12-24T06:22:58.813Z,7.4
2018-12-24T06:24:00.402Z,7.4
2018-12-24T06:25:01.826Z,7.3
2018-12-24T06:26:03.285Z,7.3
2018-12-24T06:27:04.886Z,7.3
2018-12-24T06:28:06.398Z,7.3
2018-12-24T06:29:07.845Z,7.3
2018-12-24T06:30:09.503Z,7.3
2018-12-24T06:31:10.963Z,7.3
2018-12-24T06:32:12.524Z,7.4
2018-12-24T06:33:14.182Z,7.3
2018-12-24T06:34:15.649Z,7.3
2018-12-24T06:35:17.289Z,7.3
2018-12-24T06:36:18.800Z,7.3
2018-12-24T06:37:20.332Z,7.4
2018-12-24T06:38:22.048Z,7.2
2018-12-24T06:39:23.539Z,7.3
2018-12-24T06:40:25.024Z,7.3
2018-12-24T06:41:26.703Z,7.3
2018-12-24T06:42:28.211Z,7.3
2018-12-24T06:43:29.703Z,7.3
2018-12-24T06:44:31.252Z,7.2
2018-12-24T06:45:32.704Z,7.1
2018-12-24T06:46:34.182Z,7.2
2018-12-24T06:47:35.781Z,7.2
2018-12-24T06:48:37.273Z,7.2
2018-12-24T06:49:39.214Z,7.2
2018-12-24T06:50:41.298Z,7.2
2018-12-24T06:51:43.045Z,7.2
2018-12-24T06:52:44.520Z,7.2
2018-12-24T06:53:46.041Z,7.2
2018-12-24T06:54:47.581Z,7.1
2018-12-24T06:55:49.075Z,7.2
2018-12-24T06:56:50.786Z,7.1
2018-12-24T06:57:52.298Z,7.2
2018-12-24T06:58:53.879Z,7.2
2018-12-24T06:59:55.403Z,7.2
2018-12-24T07:00:56.989Z,7.1
2018-12-24T07:01:58.522Z,7.1
2018-12-24T07:03:00.249Z,7.1
2018-12-24T07:04:01.730Z,7.0
2018-12-24T07:05:03.326Z,7.0
2018-12-24T07:06:04.769Z,6.9
2018-12-24T07:07:06.479Z,7.0
2018-12-24T07:08:07.930Z,7.0
2018-12-24T07:09:09.506Z,6.9
2018-12-24T07:10:10.981Z,6.9
2018-12-24T07:11:12.587Z,6.9
2018-12-24T07:12:14.068Z,7.0
2018-12-24T07:13:15.682Z,7.0
2018-12-24T07:14:17.224Z,6.9
2018-12-24T07:15:18.795Z,6.8
2018-12-24T07:16:20.269Z,6.9
2018-12-24T07:17:21.889Z,6.9
2018-12-24T07:18:23.437Z,6.8
2018-12-24T07:19:25.206Z,6.8
2018-12-24T07:20:26.674Z,6.7
2018-12-24T07:21:28.659Z,6.7
2018-12-24T07:22:30.160Z,6.7
2018-12-24T07:23:31.692Z,6.6
2018-12-24T07:24:33.675Z,6.7
2018-12-24T07:25:35.111Z,6.6
2018-12-24T07:26:37.012Z,6.5
2018-12-24T07:27:38.719Z,6.5
2018-12-24T07:28:40.245Z,6.5
2018-12-24T07:29:41.799Z,6.5
2018-12-24T07:30:43.334Z,6.4
2018-12-24T07:31:44.917Z,6.5
2018-12-24T07:32:46.439Z,6.4
2018-12-24T07:33:47.968Z,6.4
2018-12-24T07:34:49.461Z,6.4
2018-12-24T07:35:51.092Z,6.3
2018-12-24T07:36:52.706Z,6.3
2018-12-24T07:37:54.194Z,6.3
2018-12-24T07:38:55.708Z,6.2
2018-12-24T07:39:57.254Z,6.2
2018-12-24T07:40:58.711Z,6.1
2018-12-24T07:42:01.591Z,6.1
2018-12-24T07:43:03.026Z,6.1
2018-12-24T07:44:04.587Z,6.1
2018-12-24T07:45:06.031Z,6.1
2018-12-24T07:46:07.671Z,6.0
2018-12-24T07:47:09.284Z,6.0
2018-12-24T07:48:11.066Z,6.1
2018-12-24T07:49:12.669Z,6.1
2018-12-24T07:50:14.289Z,6.1
2018-12-24T07:51:15.872Z,6.1
2018-12-24T07:52:17.616Z,6.1
2018-12-24T07:53:19.121Z,6.1
2018-12-24T07:54:20.766Z,6.1
2018-12-24T07:55:22.296Z,6.1
2018-12-24T07:56:25.175Z,6.2
2018-12-24T07:57:26.842Z,6.1
2018-12-24T07:58:28.357Z,6.1
2018-12-24T07:59:29.931Z,5.9
2018-12-24T08:00:31.481Z,5.9
2018-12-24T08:01:33.336Z,5.8
2018-12-24T08:02:35.124Z,5.9
2018-12-24T08:03:36.603Z,5.8
2018-12-24T08:04:38.211Z,5.7
2018-12-24T08:05:39.685Z,5.7
2018-12-24T08:06:41.244Z,5.7
2018-12-24T08:07:42.781Z,5.6
2018-12-24T08:08:44.322Z,5.5
2018-12-24T08:09:46.083Z,5.5
2018-12-24T08:10:47.526Z,5.6
2018-12-24T08:11:49.113Z,5.5
2018-12-24T08:12:50.698Z,5.5
2018-12-24T08:13:52.188Z,5.4
2018-12-24T08:14:53.947Z,5.5
2018-12-24T08:15:55.638Z,5.4
2018-12-24T08:16:57.123Z,5.4
2018-12-24T08:17:58.737Z,5.4
2018-12-24T08:19:00.262Z,5.4
2018-12-24T08:20:01.749Z,5.4
2018-12-24T08:21:03.442Z,5.5
2018-12-24T08:22:05.045Z,5.4
2018-12-24T08:23:06.600Z,5.4
2018-12-24T08:24:08.171Z,5.4
2018-12-24T08:25:09.734Z,5.4
2018-12-24T08:26:11.452Z,5.4
2018-12-24T08:27:12.998Z,5.4
2018-12-24T08:28:14.485Z,5.3
2018-12-24T08:29:15.998Z,5.4
2018-12-24T08:30:17.565Z,5.3
2018-12-24T08:31:19.085Z,5.3
2018-12-24T08:32:20.795Z,5.2
2018-12-24T08:33:22.313Z,5.3
2018-12-24T08:34:23.852Z,5.2
2018-12-24T08:35:25.464Z,5.2
2018-12-24T08:36:26.919Z,5.2
2018-12-24T08:37:28.594Z,5.2
2018-12-24T08:38:30.074Z,5.2
2018-12-24T08:39:31.606Z,5.1
2018-12-24T08:40:33.229Z,5.1
2018-12-24T08:41:34.820Z,5.2
2018-12-24T08:42:36.366Z,5.2
2018-12-24T08:43:38.279Z,5.1
2018-12-24T08:44:41.870Z,5.1
2018-12-24T08:45:41.261Z,5.1
2018-12-24T08:46:42.794Z,5.1
2018-12-24T08:47:44.393Z,5.1
2018-12-24T08:48:45.924Z,5.2
2018-12-24T08:49:47.431Z,5.1
2018-12-24T08:50:49.082Z,5.1
2018-12-24T08:51:50.512Z,5.2
2018-12-24T08:52:52.010Z,5.0
2018-12-24T08:53:53.862Z,5.1
2018-12-24T08:54:55.712Z,5.1
2018-12-24T08:55:57.273Z,5.1
2018-12-24T08:56:59.163Z,5.0
2018-12-24T08:58:00.668Z,5.1
2018-12-24T08:59:02.203Z,5.0
2018-12-24T09:00:04.057Z,5.0
2018-12-24T09:01:05.523Z,4.9
2018-12-24T09:02:07.079Z,5.0
2018-12-24T09:03:08.759Z,5.0
2018-12-24T09:04:10.200Z,5.0
2018-12-24T09:05:11.627Z,5.0
2018-12-24T09:06:13.264Z,5.0
2018-12-24T09:07:14.770Z,5.1
2018-12-24T09:08:16.188Z,4.9
2018-12-24T09:09:19.026Z,5.0
2018-12-24T09:10:19.450Z,4.9
2018-12-24T09:11:20.871Z,4.9
2018-12-24T09:12:22.530Z,5.0
2018-12-24T09:13:23.995Z,5.0
2018-12-24T09:14:25.482Z,5.0
2018-12-24T09:15:27.273Z,5.0
2018-12-24T09:16:28.862Z,4.9
2018-12-24T09:17:30.571Z,4.9
2018-12-24T09:18:32.026Z,5.0
2018-12-24T09:19:33.742Z,4.9
2018-12-24T09:20:35.190Z,4.9
2018-12-24T09:21:37.319Z,4.9
2018-12-24T09:22:38.794Z,4.9
2018-12-24T09:23:40.408Z,4.9
2018-12-24T09:24:41.958Z,4.9
2018-12-24T09:25:43.307Z,4.9
2018-12-24T09:26:44.914Z,5.0
2018-12-24T09:27:46.483Z,4.9
2018-12-24T09:28:48.021Z,4.8
2018-12-24T09:29:49.650Z,4.8
2018-12-24T09:30:51.155Z,4.8
2018-12-24T09:31:52.729Z,4.8
2018-12-24T09:32:54.308Z,4.9
2018-12-24T09:33:55.787Z,4.9
2018-12-24T09:34:57.199Z,4.8
2018-12-24T09:35:59.313Z,4.8
2018-12-24T09:37:00.744Z,4.8
2018-12-24T09:38:02.348Z,4.8
2018-12-24T09:39:03.961Z,4.8
2018-12-24T09:40:05.480Z,4.9
2018-12-24T09:41:07.327Z,4.9
2018-12-24T09:42:08.794Z,4.8
2018-12-24T09:43:10.259Z,4.8
2018-12-24T09:44:11.927Z,4.8
2018-12-24T09:45:13.331Z,4.9
2018-12-24T09:46:14.961Z,4.8
2018-12-24T09:47:16.410Z,4.8
2018-12-24T09:48:18.025Z,4.8
2018-12-24T09:49:19.482Z,5.0
2018-12-24T09:50:20.930Z,4.9
2018-12-24T09:51:22.560Z,4.9
2018-12-24T09:52:24.041Z,4.8
2018-12-24T09:53:25.545Z,4.9
2018-12-24T09:54:27.284Z,4.8
2018-12-24T09:55:28.744Z,4.8
2018-12-24T09:56:30.235Z,4.8
2018-12-24T09:57:31.814Z,4.9
2018-12-24T09:58:33.764Z,4.8
2018-12-24T09:59:35.240Z,4.8
2018-12-24T10:00:36.910Z,4.9
2018-12-24T10:01:38.382Z,4.8
2018-12-24T10:02:39.792Z,5.0
2018-12-24T10:03:41.491Z,4.9
2018-12-24T10:04:42.961Z,4.9
2018-12-24T10:05:44.462Z,4.9
2018-12-24T10:06:46.047Z,4.9
2018-12-24T10:07:47.666Z,5.0
2018-12-24T10:08:49.181Z,4.9
2018-12-24T10:09:50.540Z,4.9
2018-12-24T10:10:52.946Z,4.8
2018-12-24T10:12:34.164Z,4.9
2018-12-24T10:13:35.531Z,4.9
2018-12-24T10:14:36.926Z,4.9
2018-12-24T10:15:38.634Z,5.0
2018-12-24T10:16:40.031Z,4.9
2018-12-24T10:17:41.731Z,5.0
2018-12-24T10:18:43.127Z,4.9
2018-12-24T10:19:44.526Z,5.0
2018-12-24T10:20:46.051Z,5.0
2018-12-24T10:21:47.451Z,5.1
2018-12-24T10:22:48.847Z,5.1
2018-12-24T10:23:50.359Z,5.2
2018-12-24T10:24:51.762Z,5.3
2018-12-24T10:25:53.483Z,5.2
2018-12-24T10:26:54.871Z,5.3
2018-12-24T10:27:56.558Z,5.2
2018-12-24T10:29:54.837Z,5.2
2018-12-24T10:30:56.246Z,5.3
2018-12-24T10:31:57.825Z,5.4
2018-12-24T10:32:59.283Z,5.2
2018-12-24T10:34:01.188Z,5.2
2018-12-24T10:35:02.809Z,5.2
2018-12-24T10:36:04.459Z,5.3
2018-12-24T10:37:05.994Z,5.3
2018-12-24T10:39:39.358Z,5.5
2018-12-24T10:40:40.240Z,5.5
2018-12-24T10:41:41.637Z,5.4
2018-12-24T10:42:43.032Z,5.4
2018-12-24T10:43:44.568Z,5.5
2018-12-24T10:44:45.968Z,5.5
2018-12-24T10:45:47.376Z,5.5
2018-12-24T10:46:48.887Z,5.6
2018-12-24T10:47:50.303Z,5.5
2018-12-24T10:48:51.973Z,5.7
2018-12-24T10:49:53.371Z,5.8
2018-12-24T10:50:55.077Z,5.9
2018-12-24T10:51:56.473Z,6.1
2018-12-24T10:52:58.142Z,6.1
2018-12-24T10:53:59.538Z,6.1
2018-12-24T10:55:01.266Z,6.1
2018-12-24T10:56:02.666Z,6.0
2018-12-24T10:57:04.316Z,6.1
2018-12-24T10:58:05.753Z,6.0
2018-12-24T10:59:07.400Z,6.1
2018-12-24T11:00:08.800Z,6.1
2018-12-24T11:01:10.208Z,6.1
2018-12-24T11:02:11.725Z,6.1
2018-12-24T11:03:13.152Z,6.2
2018-12-24T11:04:14.548Z,6.2
2018-12-24T11:05:16.256Z,6.3
2018-12-24T11:06:17.652Z,6.3
2018-12-24T11:07:19.051Z,6.2
2018-12-24T11:08:20.570Z,6.3
2018-12-24T11:09:22.000Z,6.3
2018-12-24T11:10:23.431Z,6.4
2018-12-24T11:11:25.094Z,6.4
2018-12-24T11:12:26.533Z,6.2
2018-12-24T11:13:28.184Z,6.1
2018-12-24T11:14:29.579Z,6.1
2018-12-24T11:15:30.983Z,6.1
2018-12-24T11:16:32.500Z,6.1
2018-12-24T11:17:33.928Z,5.9
2018-12-24T11:18:35.327Z,6.0
2018-12-24T11:19:37.044Z,5.9
2018-12-24T11:20:38.457Z,5.9
2018-12-24T11:21:40.112Z,5.9
2018-12-24T11:22:41.508Z,5.8
2018-12-24T11:23:43.013Z,5.9
2018-12-24T11:24:44.459Z,6.0
2018-12-24T11:25:45.862Z,6.1
2018-12-24T11:26:47.351Z,6.0
2018-12-24T11:27:48.753Z,6.0
2018-12-24T11:28:50.149Z,6.1
2018-12-24T11:29:51.848Z,6.1
2018-12-24T11:30:53.263Z,6.1
2018-12-24T11:31:54.667Z,6.2
2018-12-24T11:32:56.159Z,6.4
2018-12-24T11:33:57.553Z,6.3
2018-12-24T11:34:58.958Z,6.3
2018-12-24T11:36:00.493Z,6.4
2018-12-24T11:37:01.950Z,6.3
2018-12-24T11:38:03.568Z,6.4
2018-12-24T11:39:05.021Z,6.4
2018-12-24T11:40:07.063Z,6.4
2018-12-24T11:41:08.459Z,6.4
2018-12-24T11:42:09.854Z,6.3
2018-12-24T11:43:11.387Z,6.3
2018-12-24T11:44:12.820Z,6.2
2018-12-24T11:45:14.242Z,6.4
2018-12-24T11:46:15.965Z,6.4
2018-12-24T11:47:17.358Z,6.6
2018-12-24T11:48:18.997Z,6.7
2018-12-24T11:49:20.394Z,6.6
2018-12-24T11:50:21.879Z,6.7
2018-12-24T11:51:23.305Z,6.6
2018-12-24T11:52:24.962Z,6.6
2018-12-24T11:53:26.379Z,6.6
2018-12-24T11:54:28.054Z,6.5
2018-12-24T11:55:29.445Z,6.4
2018-12-24T11:56:30.850Z,6.3
2018-12-24T11:57:32.378Z,6.2
2018-12-24T11:58:33.796Z,6.2
2018-12-24T11:59:35.199Z,6.2
2018-12-24T12:00:39.818Z,6.1
2018-12-24T12:01:41.030Z,6.1
2018-12-24T12:02:42.763Z,6.1
2018-12-24T12:03:44.231Z,6.1
2018-12-24T12:04:45.851Z,6.1
2018-12-24T12:05:47.371Z,6.1
2018-12-24T12:06:48.816Z,6.0
2018-12-24T12:07:50.492Z,6.0
2018-12-24T12:08:52.064Z,5.9
2018-12-24T12:09:53.539Z,5.9
2018-12-24T12:10:55.287Z,5.9
2018-12-24T12:11:56.705Z,5.8
2018-12-24T12:12:58.357Z,5.8
2018-12-24T12:13:59.861Z,5.8
2018-12-24T12:15:01.408Z,5.8
2018-12-24T12:16:02.969Z,5.8
2018-12-24T12:17:04.414Z,5.8
2018-12-24T12:18:06.678Z,5.9
2018-12-24T12:19:21.735Z,5.9
2018-12-24T12:20:24.634Z,5.9
2018-12-24T12:21:26.053Z,6.0
2018-12-24T12:22:27.549Z,6.1
2018-12-24T12:23:29.005Z,6.2
2018-12-24T12:24:31.617Z,6.3
2018-12-24T12:25:33.117Z,6.4
2018-12-24T12:26:34.600Z,6.5
2018-12-24T12:27:36.336Z,6.6
2018-12-24T12:28:37.812Z,6.6
2018-12-24T12:29:39.282Z,6.7
2018-12-24T12:30:41.038Z,6.7
2018-12-24T12:31:42.497Z,6.8
2018-12-24T12:32:44.156Z,6.7
2018-12-24T12:33:45.627Z,6.7
2018-12-24T12:34:47.436Z,6.6
2018-12-24T12:35:49.002Z,6.5
2018-12-24T12:36:50.735Z,6.5
2018-12-24T12:37:52.243Z,6.5
2018-12-24T12:38:54.035Z,6.4
2018-12-24T12:39:55.574Z,6.4
2018-12-24T12:41:02.649Z,6.4
2018-12-24T12:42:04.197Z,6.3
2018-12-24T12:43:05.966Z,6.3
2018-12-24T12:44:07.507Z,6.3
2018-12-24T12:45:09.084Z,6.3
2018-12-24T12:46:10.586Z,6.3
2018-12-24T12:47:12.340Z,6.4
2018-12-24T12:48:13.809Z,6.4
2018-12-24T12:49:15.445Z,6.5
2018-12-24T12:50:16.855Z,6.5
2018-12-24T12:51:18.510Z,6.5
2018-12-24T12:52:20.004Z,6.5
2018-12-24T12:53:21.539Z,6.4
2018-12-24T12:54:23.469Z,6.5
2018-12-24T12:55:24.914Z,6.5
2018-12-24T12:56:26.389Z,6.5
2018-12-24T12:57:28.338Z,6.6
2018-12-24T12:58:30.016Z,6.7
2018-12-24T12:59:31.688Z,6.9
2018-12-24T13:00:33.138Z,6.8
2018-12-24T13:01:34.586Z,7.0
2018-12-24T13:02:36.151Z,6.8
2018-12-24T13:03:37.574Z,6.8
2018-12-24T13:04:39.030Z,6.8
2018-12-24T13:05:40.684Z,6.8
2018-12-24T13:06:42.150Z,6.8
2018-12-24T13:07:43.578Z,6.7
2018-12-24T13:08:45.164Z,6.8
2018-12-24T13:09:46.593Z,6.8
2018-12-24T13:10:48.272Z,6.8
2018-12-24T13:11:49.683Z,6.8
2018-12-24T13:12:51.133Z,6.8
2018-12-24T13:13:52.806Z,6.8
2018-12-24T13:14:54.256Z,6.7
2018-12-24T13:15:59.501Z,6.6
2018-12-24T13:16:57.317Z,6.5
2018-12-24T13:17:58.773Z,6.5
2018-12-24T13:19:00.418Z,6.5
2018-12-24T13:20:01.836Z,6.4
2018-12-24T13:21:04.512Z,6.4
2018-12-24T13:22:05.962Z,6.5
2018-12-24T13:23:07.387Z,6.4
2018-12-24T13:24:09.068Z,6.5
2018-12-24T13:25:10.493Z,6.4
2018-12-24T13:26:11.951Z,6.4
2018-12-24T13:27:13.566Z,6.3
2018-12-24T13:28:15.114Z,6.3
2018-12-24T13:29:16.727Z,6.3
2018-12-24T13:30:18.186Z,6.3
2018-12-24T13:31:19.737Z,6.5
2018-12-24T13:32:21.208Z,6.5
2018-12-24T13:33:22.630Z,6.6
2018-12-24T13:34:24.292Z,6.6
2018-12-24T13:35:25.717Z,6.8
2018-12-24T13:36:41.793Z,6.7
2018-12-24T13:37:43.511Z,6.8
2018-12-24T13:38:45.705Z,6.8
2018-12-24T13:39:47.125Z,6.8
2018-12-24T13:40:48.709Z,6.9
2018-12-24T13:41:50.145Z,6.8
2018-12-24T13:42:51.620Z,6.7
2018-12-24T13:43:53.212Z,6.8
2018-12-24T13:44:54.828Z,6.8
2018-12-24T13:45:56.253Z,6.9
2018-12-24T13:46:57.934Z,6.9
2018-12-24T13:47:59.375Z,6.9
2018-12-24T13:49:00.993Z,6.9
2018-12-24T13:50:02.716Z,7.0
2018-12-24T13:51:04.154Z,6.9
2018-12-24T13:52:05.579Z,6.9
2018-12-24T13:53:07.203Z,6.9
2018-12-24T13:54:08.624Z,6.8
2018-12-24T13:55:10.286Z,6.9
2018-12-24T13:56:11.711Z,6.8
2018-12-24T13:57:13.392Z,6.8
2018-12-24T13:58:14.830Z,6.7
2018-12-24T13:59:16.436Z,6.7
2018-12-24T14:00:18.009Z,6.7
2018-12-24T14:01:19.521Z,6.7
2018-12-24T14:02:21.077Z,6.8
2018-12-24T14:03:22.532Z,6.7
2018-12-24T14:04:24.308Z,6.8
2018-12-24T14:05:25.816Z,6.8
2018-12-24T14:06:27.258Z,6.7
2018-12-24T14:07:28.781Z,6.7
2018-12-24T14:08:30.210Z,6.7
2018-12-24T14:09:31.625Z,6.6
2018-12-24T14:10:33.472Z,6.6
2018-12-24T14:11:34.913Z,6.7
2018-12-24T14:12:36.360Z,6.7